createdAt,value
2019-06-10T00:01:57.436Z,16.40
2019-06-10T00:04:24.343Z,16.30
2019-06-10T00:06:51.918Z,16.30
2019-06-10T00:09:21.062Z,16.20
2019-06-10T00:11:47.879Z,16.20
2019-06-10T00:14:15.475Z,16.20
2019-06-10T00:16:43.088Z,16.10
2019-06-10T00:19:12.719Z,16.10
2019-06-10T00:21:41.237Z,16.00
2019-06-10T00:24:07.386Z,16.00
2019-06-10T00:26:34.202Z,16.00
2019-06-10T00:29:03.135Z,15.90
2019-06-10T00:31:31.249Z,15.90
2019-06-10T00:33:57.007Z,15.90
2019-06-10T00:36:24.588Z,15.80
2019-06-10T00:38:52.194Z,15.80
2019-06-10T00:41:21.882Z,15.80
2019-06-10T00:43:47.359Z,15.70
2019-06-10T00:46:14.958Z,15.70
2019-06-10T00:48:43.297Z,15.60
2019-06-10T00:51:12.941Z,15.60
2019-06-10T00:53:38.484Z,15.60
2019-06-10T00:56:07.285Z,15.60
2019-06-10T00:58:33.955Z,15.50
2019-06-10T01:01:02.645Z,15.50
2019-06-10T01:03:31.368Z,15.70
2019-06-10T01:05:57.507Z,15.60
2019-06-10T01:08:25.090Z,15.70
2019-06-10T01:10:52.669Z,15.70
2019-06-10T01:13:20.842Z,15.60
2019-06-10T01:15:50.959Z,15.60
2019-06-10T01:18:31.946Z,15.60
2019-06-10T01:20:44.092Z,15.50
2019-06-10T01:23:13.528Z,15.70
2019-06-10T01:25:41.883Z,15.60
2019-06-10T01:28:07.628Z,15.60
2019-06-10T01:30:34.480Z,15.50
2019-06-10T01:33:02.062Z,15.50
2019-06-10T01:35:30.606Z,15.40
2019-06-10T01:37:57.273Z,15.40
2019-06-10T01:40:24.848Z,15.50
2019-06-10T01:42:52.470Z,15.50
2019-06-10T01:45:21.234Z,15.50
2019-06-10T01:47:47.639Z,15.60
2019-06-10T01:50:17.205Z,15.60
2019-06-10T01:52:42.872Z,15.60
2019-06-10T01:55:13.523Z,15.70
2019-06-10T01:57:41.127Z,15.70
2019-06-10T02:00:10.959Z,15.70
2019-06-10T02:02:35.296Z,15.60
2019-06-10T02:05:02.415Z,15.60
2019-06-10T02:07:31.996Z,15.70
2019-06-10T02:10:01.206Z,15.70
2019-06-10T02:12:26.818Z,15.70
2019-06-10T02:14:54.403Z,15.70
2019-06-10T02:17:23.866Z,15.60
2019-06-10T02:19:50.935Z,15.60
2019-06-10T02:22:18.533Z,15.50
2019-06-10T02:24:45.560Z,15.50
2019-06-10T02:27:14.468Z,15.50
2019-06-10T02:29:41.484Z,15.40
2019-06-10T02:32:12.379Z,15.40
2019-06-10T02:34:42.922Z,15.30
2019-06-10T02:37:04.944Z,15.30
2019-06-10T02:39:35.003Z,15.30
2019-06-10T02:42:00.218Z,15.30
2019-06-10T02:44:33.123Z,15.20
2019-06-10T02:46:55.397Z,15.20
2019-06-10T02:49:42.785Z,15.20
2019-06-10T02:51:53.583Z,15.20
2019-06-10T02:54:20.815Z,15.20
2019-06-10T02:56:46.396Z,15.20
2019-06-10T02:59:15.917Z,15.20
2019-06-10T03:01:44.004Z,15.10
2019-06-10T03:04:09.486Z,15.10
2019-06-10T03:06:40.162Z,15.10
2019-06-10T03:09:05.105Z,15.10
2019-06-10T03:11:36.922Z,15.10
2019-06-10T03:14:02.482Z,15.10
2019-06-10T03:16:28.121Z,15.10
2019-06-10T03:18:55.458Z,15.10
2019-06-10T03:21:24.636Z,15.10
2019-06-10T03:23:52.985Z,15.10
2019-06-10T03:26:19.236Z,15.10
2019-06-10T03:28:45.853Z,15.10
2019-06-10T03:31:15.529Z,15.10
2019-06-10T03:33:46.783Z,15.10
2019-06-10T03:36:09.033Z,15.10
2019-06-10T03:38:37.158Z,15.10
2019-06-10T03:41:04.951Z,15.10
2019-06-10T03:43:33.070Z,15.00
2019-06-10T03:46:02.700Z,15.10
2019-06-10T03:48:28.433Z,15.10
2019-06-10T03:50:55.317Z,15.10
2019-06-10T03:53:24.356Z,15.10
2019-06-10T03:55:52.656Z,15.10
2019-06-10T03:58:19.947Z,15.00
2019-06-10T04:00:46.432Z,15.10
2019-06-10T04:03:14.029Z,15.10
2019-06-10T04:05:42.423Z,15.10
2019-06-10T04:08:09.581Z,15.10
2019-06-10T04:10:37.926Z,15.20
2019-06-10T04:13:05.541Z,15.20
2019-06-10T04:15:33.123Z,15.20
2019-06-10T04:18:03.648Z,15.20
2019-06-10T04:20:29.505Z,15.30
2019-06-10T04:22:56.654Z,15.40
2019-06-10T04:25:26.668Z,15.40
2019-06-10T04:27:52.561Z,15.40
2019-06-10T04:30:20.175Z,15.60
2019-06-10T04:32:47.664Z,15.60
2019-06-10T04:35:16.032Z,15.70
2019-06-10T04:37:44.371Z,15.70
2019-06-10T04:40:13.384Z,15.70
2019-06-10T04:42:39.559Z,15.70
2019-06-10T04:45:07.141Z,15.70
2019-06-10T04:47:35.217Z,15.80
2019-06-10T04:50:03.299Z,15.80
2019-06-10T04:52:32.917Z,15.80
2019-06-10T04:54:58.363Z,15.80
2019-06-10T04:57:28.042Z,15.80
2019-06-10T04:59:54.296Z,15.80
2019-06-10T05:02:25.015Z,15.70
2019-06-10T05:04:49.524Z,15.70
2019-06-10T05:07:18.923Z,15.70
2019-06-10T05:09:45.471Z,15.70
2019-06-10T05:12:13.821Z,15.90
2019-06-10T05:14:43.248Z,15.90
2019-06-10T05:17:09.019Z,15.90
2019-06-10T05:19:36.589Z,15.90
2019-06-10T05:22:04.294Z,15.90
2019-06-10T05:24:34.312Z,15.90
2019-06-10T05:27:02.121Z,16.00
2019-06-10T05:29:28.385Z,16.00
2019-06-10T05:31:55.413Z,16.00
2019-06-10T05:34:26.454Z,16.10
2019-06-10T05:36:52.565Z,16.10
2019-06-10T05:39:18.177Z,16.20
2019-06-10T05:41:45.751Z,16.20
2019-06-10T05:44:13.626Z,16.20
2019-06-10T05:46:43.295Z,16.30
2019-06-10T05:49:08.548Z,16.30
2019-06-10T05:51:36.129Z,16.30
2019-06-10T05:54:03.711Z,16.40
2019-06-10T05:56:33.808Z,16.40
2019-06-10T05:59:01.643Z,16.40
2019-06-10T06:01:27.501Z,16.50
2019-06-10T06:03:54.516Z,16.70
2019-06-10T06:06:22.939Z,16.90
2019-06-10T06:08:49.877Z,17.00
2019-06-10T06:11:17.632Z,17.00
2019-06-10T06:13:45.243Z,17.10
2019-06-10T06:16:12.909Z,17.20
2019-06-10T06:18:42.285Z,17.20
2019-06-10T06:21:22.506Z,17.30
2019-06-10T06:23:37.077Z,17.30
2019-06-10T06:26:04.163Z,17.30
2019-06-10T06:28:33.979Z,17.50
2019-06-10T06:31:03.136Z,17.60
2019-06-10T06:33:29.463Z,17.60
2019-06-10T06:35:56.413Z,17.60
2019-06-10T06:38:24.198Z,17.70
2019-06-10T06:40:53.749Z,17.70
2019-06-10T06:43:22.094Z,17.70
2019-06-10T06:45:47.858Z,17.90
2019-06-10T06:48:15.536Z,18.00
2019-06-10T06:51:00.410Z,18.00
2019-06-10T06:53:21.221Z,18.00
2019-06-10T06:55:39.781Z,18.00
2019-06-10T06:58:06.696Z,18.00
2019-06-10T07:00:49.552Z,18.10
2019-06-10T07:03:03.133Z,18.10
2019-06-10T07:05:32.686Z,18.10
2019-06-10T07:07:58.551Z,18.10
2019-06-10T07:10:26.140Z,18.10
2019-06-10T07:12:53.752Z,18.20
2019-06-10T07:15:22.477Z,18.20
2019-06-10T07:17:49.316Z,18.30
2019-06-10T07:20:16.887Z,18.30
2019-06-10T07:22:46.576Z,18.40
2019-06-10T07:25:12.487Z,18.40
2019-06-10T07:27:42.899Z,18.50
2019-06-10T07:30:11.850Z,18.60
2019-06-10T07:32:37.351Z,18.70
2019-06-10T07:35:02.905Z,18.80
2019-06-10T07:37:32.390Z,18.80
2019-06-10T07:39:57.671Z,18.80
2019-06-10T07:42:25.250Z,18.80
2019-06-10T07:44:53.405Z,18.80
2019-06-10T07:47:22.941Z,18.80
2019-06-10T07:49:48.027Z,18.90
2019-06-10T07:52:19.644Z,19.10
2019-06-10T07:54:45.222Z,19.20
2019-06-10T07:57:12.898Z,19.20
2019-06-10T07:59:44.521Z,19.30
2019-06-10T08:02:08.789Z,19.40
2019-06-10T08:04:36.844Z,19.50
2019-06-10T08:07:04.000Z,19.50
2019-06-10T08:09:33.478Z,19.70
2019-06-10T08:12:05.446Z,19.70
2019-06-10T08:14:29.844Z,19.70
2019-06-10T08:16:57.422Z,19.70
2019-06-10T08:19:34.304Z,19.70
2019-06-10T08:21:54.875Z,19.70
2019-06-10T08:24:22.727Z,19.70
2019-06-10T08:26:50.384Z,19.80
2019-06-10T08:29:17.962Z,19.90
2019-06-10T08:31:48.443Z,19.90
2019-06-10T08:34:14.392Z,20.10
2019-06-10T08:36:46.333Z,20.10
2019-06-10T08:39:15.150Z,20.20
2019-06-10T08:41:38.466Z,20.30
2019-06-10T08:44:05.899Z,20.60
2019-06-10T08:46:33.600Z,20.60
2019-06-10T08:49:03.199Z,20.70
2019-06-10T08:51:29.155Z,20.70
2019-06-10T08:53:56.776Z,20.70
2019-06-10T08:56:24.360Z,20.70
2019-06-10T08:58:54.056Z,20.80
2019-06-10T09:01:22.346Z,20.80
2019-06-10T09:03:50.449Z,20.80
2019-06-10T09:06:16.349Z,20.90
2019-06-10T09:08:46.338Z,20.80
2019-06-10T09:11:12.923Z,20.90
2019-06-10T09:13:40.698Z,21.10
2019-06-10T09:16:15.596Z,21.20
2019-06-10T09:18:34.794Z,21.20
2019-06-10T09:21:02.464Z,21.20
2019-06-10T09:23:29.825Z,21.40
2019-06-10T09:25:57.955Z,21.50
2019-06-10T09:28:25.067Z,21.60
2019-06-10T09:30:58.597Z,21.60
2019-06-10T09:33:22.570Z,21.70
2019-06-10T09:35:50.945Z,21.60
2019-06-10T09:38:16.743Z,21.70
2019-06-10T09:40:48.423Z,21.70
2019-06-10T09:43:12.943Z,21.80
2019-06-10T09:45:41.856Z,21.80
2019-06-10T09:48:09.112Z,21.90
2019-06-10T09:50:47.048Z,21.90
2019-06-10T09:53:09.865Z,22.00
2019-06-10T09:55:37.449Z,22.00
2019-06-10T09:58:05.201Z,22.00
2019-06-10T10:00:48.802Z,22.10
2019-06-10T10:03:12.637Z,22.10
2019-06-10T10:05:51.909Z,22.10
2019-06-10T10:08:07.840Z,22.20
2019-06-10T10:10:35.442Z,22.20
2019-06-10T10:13:03.378Z,22.30
2019-06-10T10:15:34.433Z,22.50
2019-06-10T10:17:59.322Z,22.70
2019-06-10T10:20:26.941Z,22.60
2019-06-10T10:22:55.532Z,22.70
2019-06-10T10:25:23.566Z,22.70
2019-06-10T10:27:53.358Z,22.80
2019-06-10T10:30:17.557Z,22.80
2019-06-10T10:32:48.931Z,22.80
2019-06-10T10:35:13.512Z,22.80
2019-06-10T10:37:42.333Z,22.80
2019-06-10T10:40:08.708Z,23.00
2019-06-10T10:42:45.003Z,23.20
2019-06-10T10:45:04.634Z,23.20
2019-06-10T10:47:33.527Z,23.20
2019-06-10T10:50:02.553Z,23.30
2019-06-10T10:52:27.434Z,23.50
2019-06-10T10:54:55.811Z,23.50
2019-06-10T10:57:23.417Z,23.50
2019-06-10T10:59:53.946Z,23.50
2019-06-10T11:02:18.590Z,23.50
2019-06-10T11:04:46.267Z,23.50
2019-06-10T11:07:14.249Z,23.60
2019-06-10T11:09:42.425Z,23.60
2019-06-10T11:12:09.736Z,23.70
2019-06-10T11:14:37.360Z,23.60
2019-06-10T11:17:04.959Z,23.80
2019-06-10T11:19:33.064Z,23.80
2019-06-10T11:22:02.776Z,23.80
2019-06-10T11:24:36.489Z,23.90
2019-06-10T11:26:56.551Z,23.90
2019-06-10T11:29:22.974Z,23.90
2019-06-10T11:31:53.675Z,23.90
2019-06-10T11:34:19.838Z,23.90
2019-06-10T11:36:46.135Z,23.80
2019-06-10T11:39:13.511Z,23.80
2019-06-10T11:41:42.867Z,23.90
2019-06-10T11:44:08.539Z,23.90
2019-06-10T11:46:36.147Z,24.00
2019-06-10T11:49:04.499Z,24.20
2019-06-10T11:51:32.083Z,24.20
2019-06-10T11:54:00.452Z,24.20
2019-06-10T11:56:28.806Z,24.30
2019-06-10T11:58:58.704Z,24.20
2019-06-10T12:01:23.995Z,24.30
2019-06-10T12:03:54.024Z,24.40
2019-06-10T12:06:19.548Z,24.40
2019-06-10T12:08:47.132Z,24.40
2019-06-10T12:11:14.718Z,24.40
2019-06-10T12:13:43.143Z,24.40
2019-06-10T12:18:38.307Z,24.50
2019-06-10T12:21:05.929Z,24.50
2019-06-10T12:23:33.842Z,24.50
2019-06-10T12:26:04.507Z,24.50
2019-06-10T12:28:29.033Z,24.50
2019-06-10T12:31:01.095Z,24.60
2019-06-10T12:33:25.296Z,24.60
2019-06-10T12:35:54.890Z,24.60
2019-06-10T12:38:19.389Z,24.60
2019-06-10T12:40:47.025Z,24.70
2019-06-10T12:43:14.602Z,24.70
2019-06-10T12:45:43.294Z,24.70
2019-06-10T12:48:09.776Z,24.80
2019-06-10T12:50:38.121Z,24.70
2019-06-10T12:53:07.328Z,24.70
2019-06-10T12:55:42.897Z,24.70
2019-06-10T12:58:04.380Z,24.70
2019-06-10T13:00:28.804Z,24.70
2019-06-10T13:02:57.382Z,24.80
2019-06-10T13:05:23.965Z,24.70
2019-06-10T13:07:51.592Z,24.70
2019-06-10T13:10:20.562Z,24.80
2019-06-10T13:12:48.976Z,24.80
2019-06-10T13:15:15.967Z,25.00
2019-06-10T13:17:44.112Z,25.00
2019-06-10T13:20:13.625Z,25.10
2019-06-10T13:22:38.774Z,25.10
2019-06-10T13:25:06.927Z,25.10
2019-06-10T13:27:33.961Z,25.20
2019-06-10T13:30:02.721Z,25.20
2019-06-10T13:32:29.127Z,25.20
2019-06-10T13:34:57.092Z,25.30
2019-06-10T13:37:24.668Z,25.50
2019-06-10T13:39:53.009Z,25.70
2019-06-10T13:42:22.797Z,25.70
2019-06-10T13:44:48.209Z,25.70
2019-06-10T13:47:15.800Z,25.60
2019-06-10T13:49:43.802Z,25.50
2019-06-10T13:52:16.480Z,25.50
2019-06-10T13:54:39.337Z,25.40
2019-06-10T13:57:09.820Z,25.50
2019-06-10T13:59:36.489Z,25.40
2019-06-10T14:02:06.451Z,25.40
2019-06-10T14:04:33.424Z,25.30
2019-06-10T14:06:59.284Z,25.50
2019-06-10T14:09:26.970Z,25.40
2019-06-10T14:11:54.564Z,25.30
2019-06-10T14:14:22.963Z,25.30
2019-06-10T14:16:49.752Z,25.20
2019-06-10T14:19:18.096Z,25.10
2019-06-10T14:21:45.679Z,25.10
2019-06-10T14:24:16.022Z,25.10
2019-06-10T14:26:44.833Z,25.10
2019-06-10T14:29:09.225Z,25.10
2019-06-10T14:31:43.712Z,25.10
2019-06-10T14:34:05.505Z,25.10
2019-06-10T14:36:32.526Z,25.10
2019-06-10T14:38:58.916Z,25.10
2019-06-10T14:41:27.262Z,25.30
2019-06-10T14:43:54.894Z,25.30
2019-06-10T14:46:23.057Z,25.20
2019-06-10T14:48:50.064Z,25.40
2019-06-10T14:51:17.684Z,25.30
2019-06-10T14:53:45.580Z,25.30
2019-06-10T14:56:17.217Z,25.40
2019-06-10T14:58:42.422Z,25.30
2019-06-10T15:01:10.105Z,25.00
2019-06-10T15:03:37.031Z,25.00
2019-06-10T15:06:04.608Z,24.90
2019-06-10T15:08:32.439Z,24.90
2019-06-10T15:10:59.814Z,24.80
2019-06-10T15:13:27.389Z,24.70
2019-06-10T15:15:55.257Z,24.50
2019-06-10T15:18:23.902Z,24.30
2019-06-10T15:20:53.527Z,24.00
2019-06-10T15:23:20.405Z,23.90
2019-06-10T15:25:52.430Z,23.80
2019-06-10T15:28:15.932Z,23.60
2019-06-10T15:30:43.247Z,23.40
2019-06-10T15:33:11.122Z,23.20
2019-06-10T15:35:37.703Z,23.00
2019-06-10T15:38:05.306Z,22.80
2019-06-10T15:40:33.657Z,22.20
2019-06-10T15:43:01.263Z,22.20
2019-06-10T15:45:28.846Z,21.90
2019-06-10T15:47:56.460Z,21.60
2019-06-10T15:50:27.730Z,21.10
2019-06-10T15:52:55.077Z,21.00
2019-06-10T15:55:49.278Z,20.60
2019-06-10T15:57:51.029Z,20.60
2019-06-10T16:00:22.328Z,20.40
2019-06-10T16:02:46.596Z,20.30
2019-06-10T16:05:15.746Z,20.20
2019-06-10T16:07:43.184Z,20.00
2019-06-10T16:10:12.159Z,19.90
2019-06-10T16:12:39.551Z,19.70
2019-06-10T16:15:07.124Z,19.70
2019-06-10T16:17:35.481Z,19.70
2019-06-10T16:20:03.805Z,19.70
2019-06-10T16:22:30.694Z,19.70
2019-06-10T16:24:58.271Z,19.60
2019-06-10T16:27:43.489Z,19.60
2019-06-10T16:29:54.218Z,19.60
2019-06-10T16:32:23.629Z,19.50
2019-06-10T16:34:52.233Z,19.50
2019-06-10T16:37:19.152Z,19.30
2019-06-10T16:39:46.432Z,19.30
2019-06-10T16:42:14.011Z,19.20
2019-06-10T16:44:42.374Z,19.20
2019-06-10T16:47:12.462Z,19.00
2019-06-10T16:49:38.109Z,19.00
2019-06-10T16:52:05.693Z,19.00
2019-06-10T16:54:33.273Z,18.90
2019-06-10T16:57:03.730Z,18.90
2019-06-10T16:59:30.215Z,18.80
2019-06-10T17:01:57.411Z,18.90
2019-06-10T17:04:27.601Z,18.80
2019-06-10T17:06:53.261Z,18.80
2019-06-10T17:09:23.050Z,18.90
2019-06-10T17:11:48.465Z,18.80
2019-06-10T17:14:16.055Z,18.70
2019-06-10T17:16:44.431Z,18.50
2019-06-10T17:19:14.368Z,18.50
2019-06-10T17:21:42.182Z,18.40
2019-06-10T17:24:08.602Z,18.40
2019-06-10T17:26:38.241Z,18.60
2019-06-10T17:29:03.787Z,18.80
2019-06-10T17:31:34.875Z,18.90
2019-06-10T17:33:58.985Z,19.00
2019-06-10T17:36:29.520Z,18.90
2019-06-10T17:38:54.249Z,18.80
2019-06-10T17:41:25.835Z,18.60
2019-06-10T17:43:49.390Z,18.50
2019-06-10T17:46:17.013Z,18.30
2019-06-10T17:48:44.592Z,18.20
2019-06-10T17:51:12.210Z,18.10
2019-06-10T17:53:39.812Z,18.00
2019-06-10T17:56:07.388Z,17.90
2019-06-10T17:58:50.110Z,17.80
2019-06-10T18:01:02.625Z,17.70
2019-06-10T18:03:31.346Z,17.70
2019-06-10T18:05:58.264Z,17.60
2019-06-10T18:08:26.042Z,17.50
2019-06-10T18:10:53.805Z,17.60
2019-06-10T18:13:22.676Z,17.50
2019-06-10T18:15:49.737Z,17.50
2019-06-10T18:18:17.314Z,17.40
2019-06-10T18:20:44.920Z,17.40
2019-06-10T18:23:13.536Z,17.30
2019-06-10T18:25:43.095Z,17.20
2019-06-10T18:28:08.486Z,17.20
2019-06-10T18:30:37.719Z,17.20
2019-06-10T18:33:03.751Z,17.10
2019-06-10T18:35:34.139Z,17.10
2019-06-10T18:37:58.906Z,17.10
2019-06-10T18:40:27.449Z,17.00
2019-06-10T18:42:54.128Z,17.00
2019-06-10T18:45:22.373Z,17.00
2019-06-10T18:47:49.327Z,16.90
2019-06-10T18:50:16.899Z,16.90
2019-06-10T18:52:44.506Z,17.10
2019-06-10T18:55:12.307Z,17.10
2019-06-10T18:57:42.540Z,17.00
2019-06-10T19:00:13.790Z,17.00
2019-06-10T19:02:36.502Z,17.00
2019-06-10T19:05:03.215Z,16.90
2019-06-10T19:07:33.858Z,16.90
2019-06-10T19:09:59.333Z,16.90
2019-06-10T19:12:26.922Z,16.80
2019-06-10T19:14:54.513Z,16.80
2019-06-10T19:17:23.067Z,16.80
2019-06-10T19:19:53.103Z,16.70
2019-06-10T19:22:18.399Z,16.70
2019-06-10T19:24:45.997Z,16.70
2019-06-10T19:27:13.613Z,16.70
2019-06-10T19:29:50.395Z,16.70
2019-06-10T19:32:08.784Z,16.70
2019-06-10T19:34:37.475Z,16.60
2019-06-10T19:37:03.999Z,16.60
2019-06-10T19:39:35.579Z,16.60
2019-06-10T19:41:59.247Z,16.60
2019-06-10T19:44:26.831Z,16.50
2019-06-10T19:46:54.421Z,16.50
2019-06-10T19:49:22.048Z,16.50
2019-06-10T19:51:49.606Z,16.50
2019-06-10T19:54:17.231Z,16.50
2019-06-10T19:56:44.813Z,16.50
2019-06-10T19:59:13.166Z,16.40
2019-06-10T20:01:45.787Z,16.40
2019-06-10T20:04:08.376Z,16.40
2019-06-10T20:06:35.953Z,16.30
2019-06-10T20:09:03.580Z,16.30
2019-06-10T20:11:32.204Z,16.30
2019-06-10T20:13:58.736Z,16.20
2019-06-10T20:16:26.342Z,16.20
2019-06-10T20:18:53.956Z,16.10
2019-06-10T20:21:22.698Z,16.10
2019-06-10T20:23:49.911Z,16.10
2019-06-10T20:26:18.259Z,16.10
2019-06-10T20:28:48.719Z,16.10
2019-06-10T20:31:13.461Z,16.10
2019-06-10T20:33:43.067Z,16.20
2019-06-10T20:36:15.918Z,16.30
2019-06-10T20:38:37.743Z,16.20
2019-06-10T20:41:03.845Z,16.20
2019-06-10T20:43:32.816Z,16.20
2019-06-10T20:45:59.046Z,16.20
2019-06-10T20:48:26.640Z,16.20
2019-06-10T20:50:54.266Z,16.10
2019-06-10T20:53:21.857Z,16.10
2019-06-10T20:55:54.466Z,16.10
2019-06-10T20:58:17.052Z,16.10
2019-06-10T21:00:49.985Z,16.10
2019-06-10T21:03:12.245Z,16.00
2019-06-10T21:05:39.860Z,16.00
2019-06-10T21:08:08.016Z,16.00
2019-06-10T21:10:35.599Z,16.00
2019-06-10T21:13:03.219Z,16.00
2019-06-10T21:15:33.203Z,16.00
2019-06-10T21:17:58.386Z,16.10
2019-06-10T21:20:26.010Z,16.30
2019-06-10T21:22:54.423Z,16.30
2019-06-10T21:25:22.931Z,16.20
2019-06-10T21:27:52.408Z,16.20
2019-06-10T21:30:17.196Z,16.10
2019-06-10T21:32:45.744Z,16.10
2019-06-10T21:35:12.384Z,16.00
2019-06-10T21:37:42.534Z,16.10
2019-06-10T21:40:07.547Z,16.00
2019-06-10T21:42:35.150Z,16.00
2019-06-10T21:45:03.617Z,16.00
2019-06-10T21:47:32.377Z,15.90
2019-06-10T21:49:58.703Z,15.90
2019-06-10T21:52:26.288Z,15.90
2019-06-10T21:54:53.933Z,15.90
2019-06-10T21:57:22.079Z,15.90
2019-06-10T21:59:49.094Z,16.00
2019-06-10T22:02:17.470Z,16.20
2019-06-10T22:04:46.660Z,16.10
2019-06-10T22:07:13.402Z,16.10
2019-06-10T22:09:42.537Z,16.10
2019-06-10T22:12:08.602Z,16.00
2019-06-10T22:14:36.581Z,16.00
2019-06-10T22:17:04.157Z,16.00
2019-06-10T22:19:32.281Z,15.90
2019-06-10T22:22:02.588Z,15.90
2019-06-10T22:24:28.468Z,15.90
2019-06-10T22:26:56.042Z,15.90
2019-06-10T22:29:23.653Z,15.80
2019-06-10T22:31:53.622Z,15.80
2019-06-10T22:34:18.806Z,15.80
2019-06-10T22:36:47.539Z,15.80
2019-06-10T22:39:14.746Z,15.70
2019-06-10T22:41:42.688Z,15.70
2019-06-10T22:44:12.507Z,15.70
2019-06-10T22:46:38.046Z,15.60
2019-06-10T22:49:05.646Z,15.70
2019-06-10T22:51:33.999Z,15.70
2019-06-10T22:54:03.618Z,15.60
2019-06-10T22:56:29.206Z,15.60
2019-06-10T22:58:57.327Z,15.80
2019-06-10T23:01:34.343Z,15.80
2019-06-10T23:03:52.195Z,15.90
2019-06-10T23:06:19.602Z,15.90
2019-06-10T23:08:48.209Z,15.80
2019-06-10T23:11:15.571Z,15.80
2019-06-10T23:13:43.187Z,15.70
2019-06-10T23:16:12.887Z,15.90
2019-06-10T23:18:39.106Z,15.80
2019-06-10T23:21:06.728Z,15.80
2019-06-10T23:23:34.314Z,15.80
2019-06-10T23:26:02.898Z,15.90
2019-06-10T23:28:32.567Z,15.80
2019-06-10T23:31:00.150Z,15.80
2019-06-10T23:33:26.227Z,15.90
2019-06-10T23:35:54.512Z,15.90
2019-06-10T23:38:23.535Z,15.80
2019-06-10T23:40:50.627Z,15.80
2019-06-10T23:43:17.734Z,15.70
2019-06-10T23:45:45.639Z,15.60
2019-06-10T23:48:13.548Z,15.60
2019-06-10T23:50:43.205Z,15.50
2019-06-10T23:53:08.424Z,15.50
2019-06-10T23:55:36.003Z,15.60
2019-06-10T23:58:03.613Z,15.60
